sensor_id;sensor_type;location;lat;lon;timestamp;pressure;altitude;pressure_sealevel;temperature;humidity
45541;BME280;31265;49.680;8.608;2023-01-29T00:00:13;101901.94;;;-0.74;100.00
45541;BME280;31265;49.680;8.608;2023-01-29T00:02:44;101894.22;;;-0.76;100.00
45541;BME280;31265;49.680;8.608;2023-01-29T00:05:13;101895.47;;;-0.68;100.00
45541;BME280;31265;49.680;8.608;2023-01-29T00:08:01;101892.59;;;-0.73;100.00
45541;BME280;31265;49.680;8.608;2023-01-29T00:10:29;101895.88;;;-0.78;100.00
45541;BME280;31265;49.680;8.608;2023-01-29T00:12:58;101892.50;;;-0.82;100.00
45541;BME280;31265;49.680;8.608;2023-01-29T00:15:26;101882.50;;;-0.85;100.00
45541;BME280;31265;49.680;8.608;2023-01-29T00:17:57;101893.41;;;-0.85;100.00
45541;BME280;31265;49.680;8.608;2023-01-29T00:20:25;101904.63;;;-0.83;100.00
45541;BME280;31265;49.680;8.608;2023-01-29T00:22:56;101897.66;;;-0.84;100.00
45541;BME280;31265;49.680;8.608;2023-01-29T00:25:26;101898.09;;;-0.86;100.00
45541;BME280;31265;49.680;8.608;2023-01-29T00:27:54;101901.69;;;-0.89;100.00
45541;BME280;31265;49.680;8.608;2023-01-29T00:30:22;101895.50;;;-0.90;100.00
45541;BME280;31265;49.680;8.608;2023-01-29T00:32:51;101904.88;;;-0.91;100.00
45541;BME280;31265;49.680;8.608;2023-01-29T00:35:21;101894.41;;;-0.92;100.00
45541;BME280;31265;49.680;8.608;2023-01-29T00:37:53;101897.91;;;-0.92;100.00
45541;BME280;31265;49.680;8.608;2023-01-29T00:40:22;101904.13;;;-0.91;100.00
45541;BME280;31265;49.680;8.608;2023-01-29T00:42:51;101903.88;;;-0.84;100.00
45541;BME280;31265;49.680;8.608;2023-01-29T00:45:37;101904.00;;;-0.88;100.00
45541;BME280;31265;49.680;8.608;2023-01-29T00:48:06;101911.47;;;-0.79;100.00
45541;BME280;31265;49.680;8.608;2023-01-29T00:50:36;101910.69;;;-0.79;100.00
45541;BME280;31265;49.680;8.608;2023-01-29T00:53:05;101916.63;;;-0.81;100.00
45541;BME280;31265;49.680;8.608;2023-01-29T00:55:36;101918.59;;;-0.81;100.00
45541;BME280;31265;49.680;8.608;2023-01-29T00:58:04;101911.03;;;-0.77;100.00
45541;BME280;31265;49.680;8.608;2023-01-29T01:00:32;101906.03;;;-0.79;100.00
45541;BME280;31265;49.680;8.608;2023-01-29T01:03:01;101911.16;;;-0.81;100.00
45541;BME280;31265;49.680;8.608;2023-01-29T01:05:31;101912.97;;;-0.56;100.00
45541;BME280;31265;49.680;8.608;2023-01-29T01:08:01;101926.44;;;-0.61;100.00
45541;BME280;31265;49.680;8.608;2023-01-29T01:10:30;101909.69;;;-0.73;100.00
45541;BME280;31265;49.680;8.608;2023-01-29T01:13:01;101914.38;;;-0.73;100.00
45541;BME280;31265;49.680;8.608;2023-01-29T01:15:32;101912.75;;;-0.71;100.00
45541;BME280;31265;49.680;8.608;2023-01-29T01:18:03;101910.00;;;-0.71;100.00
45541;BME280;31265;49.680;8.608;2023-01-29T01:20:34;101917.69;;;-0.78;100.00
45541;BME280;31265;49.680;8.608;2023-01-29T01:23:04;101902.59;;;-0.70;100.00
45541;BME280;31265;49.680;8.608;2023-01-29T01:25:32;101906.66;;;-0.75;100.00
45541;BME280;31265;49.680;8.608;2023-01-29T01:28:01;101892.69;;;-0.77;100.00
45541;BME280;31265;49.680;8.608;2023-01-29T01:30:29;101900.13;;;-0.77;100.00
45541;BME280;31265;49.680;8.608;2023-01-29T01:32:59;101898.03;;;-0.73;100.00
45541;BME280;31265;49.680;8.608;2023-01-29T01:35:28;101905.00;;;-0.72;100.00
45541;BME280;31265;49.680;8.608;2023-01-29T01:37:56;101897.28;;;-0.74;100.00
45541;BME280;31265;49.680;8.608;2023-01-29T01:40:28;101908.03;;;-0.48;100.00
45541;BME280;31265;49.680;8.608;2023-01-29T01:42:57;101904.31;;;-0.63;100.00
45541;BME280;31265;49.680;8.608;2023-01-29T01:45:27;101901.84;;;-0.71;100.00
45541;BME280;31265;49.680;8.608;2023-01-29T01:47:58;101900.13;;;-0.77;100.00
45541;BME280;31265;49.680;8.608;2023-01-29T01:50:31;101886.94;;;-0.79;100.00
45541;BME280;31265;49.680;8.608;2023-01-29T01:53:04;101892.19;;;-0.84;100.00
45541;BME280;31265;49.680;8.608;2023-01-29T01:55:38;101885.56;;;-0.83;100.00
45541;BME280;31265;49.680;8.608;2023-01-29T01:58:09;101888.03;;;-0.76;100.00
45541;BME280;31265;49.680;8.608;2023-01-29T02:00:40;101880.84;;;-0.83;100.00
45541;BME280;31265;49.680;8.608;2023-01-29T02:03:10;101876.75;;;-0.88;100.00
45541;BME280;31265;49.680;8.608;2023-01-29T02:05:58;101878.56;;;-0.84;100.00
45541;BME280;31265;49.680;8.608;2023-01-29T02:08:50;101872.63;;;-0.92;100.00
45541;BME280;31265;49.680;8.608;2023-01-29T02:11:38;101867.75;;;-0.97;100.00
45541;BME280;31265;49.680;8.608;2023-01-29T02:14:07;101856.97;;;-1.01;100.00
45541;BME280;31265;49.680;8.608;2023-01-29T02:16:36;101862.88;;;-1.02;100.00
45541;BME280;31265;49.680;8.608;2023-01-29T02:19:08;101859.94;;;-1.08;100.00
45541;BME280;31265;49.680;8.608;2023-01-29T02:22:05;101852.03;;;-1.15;100.00
45541;BME280;31265;49.680;8.608;2023-01-29T02:24:49;101848.66;;;-1.19;100.00
45541;BME280;31265;49.680;8.608;2023-01-29T02:27:31;101849.22;;;-1.24;100.00
45541;BME280;31265;49.680;8.608;2023-01-29T02:30:06;101854.69;;;-1.24;100.00
45541;BME280;31265;49.680;8.608;2023-01-29T02:32:40;101847.84;;;-1.29;100.00
45541;BME280;31265;49.680;8.608;2023-01-29T02:35:25;101846.31;;;-1.30;100.00
45541;BME280;31265;49.680;8.608;2023-01-29T02:38:10;101847.06;;;-1.30;100.00
45541;BME280;31265;49.680;8.608;2023-01-29T02:40:42;101847.97;;;-1.33;100.00
45541;BME280;31265;49.680;8.608;2023-01-29T02:43:26;101849.72;;;-1.39;100.00
45541;BME280;31265;49.680;8.608;2023-01-29T02:46:06;101849.09;;;-1.43;100.00
45541;BME280;31265;49.680;8.608;2023-01-29T02:48:41;101840.28;;;-1.47;100.00
45541;BME280;31265;49.680;8.608;2023-01-29T02:51:17;101844.66;;;-1.49;100.00
45541;BME280;31265;49.680;8.608;2023-01-29T02:53:54;101851.06;;;-1.43;100.00
45541;BME280;31265;49.680;8.608;2023-01-29T02:56:28;101851.81;;;-1.43;100.00
45541;BME280;31265;49.680;8.608;2023-01-29T02:59:04;101844.84;;;-1.44;100.00
45541;BME280;31265;49.680;8.608;2023-01-29T03:01:41;101848.22;;;-1.40;100.00
45541;BME280;31265;49.680;8.608;2023-01-29T03:04:18;101848.13;;;-1.49;100.00
45541;BME280;31265;49.680;8.608;2023-01-29T03:06:51;101866.56;;;-1.53;100.00
45541;BME280;31265;49.680;8.608;2023-01-29T03:09:27;101866.22;;;-1.55;100.00
45541;BME280;31265;49.680;8.608;2023-01-29T03:12:02;101864.41;;;-1.58;100.00
45541;BME280;31265;49.680;8.608;2023-01-29T03:14:48;101873.66;;;-1.56;100.00
45541;BME280;31265;49.680;8.608;2023-01-29T03:18:07;101881.88;;;-1.46;100.00
45541;BME280;31265;49.680;8.608;2023-01-29T03:20:42;101886.34;;;-1.40;100.00
45541;BME280;31265;49.680;8.608;2023-01-29T03:23:18;101886.09;;;-1.33;100.00
45541;BME280;31265;49.680;8.608;2023-01-29T03:25:55;101877.50;;;-1.31;100.00
45541;BME280;31265;49.680;8.608;2023-01-29T03:28:44;101886.41;;;-1.31;100.00
45541;BME280;31265;49.680;8.608;2023-01-29T03:31:33;101883.69;;;-1.31;100.00
45541;BME280;31265;49.680;8.608;2023-01-29T03:34:22;101878.56;;;-1.28;100.00
45541;BME280;31265;49.680;8.608;2023-01-29T03:37:04;101875.56;;;-1.21;100.00
45541;BME280;31265;49.680;8.608;2023-01-29T03:39:35;101873.41;;;-1.26;100.00
45541;BME280;31265;49.680;8.608;2023-01-29T03:42:11;101866.16;;;-1.30;100.00
45541;BME280;31265;49.680;8.608;2023-01-29T03:44:52;101871.16;;;-1.28;100.00
45541;BME280;31265;49.680;8.608;2023-01-29T03:47:53;101889.16;;;-1.31;100.00
45541;BME280;31265;49.680;8.608;2023-01-29T03:50:35;101892.19;;;-1.28;100.00
45541;BME280;31265;49.680;8.608;2023-01-29T03:53:10;101893.69;;;-1.27;100.00
45541;BME280;31265;49.680;8.608;2023-01-29T03:55:50;101897.06;;;-1.23;100.00
45541;BME280;31265;49.680;8.608;2023-01-29T03:58:25;101904.59;;;-1.27;100.00
45541;BME280;31265;49.680;8.608;2023-01-29T04:01:00;101907.19;;;-1.24;100.00
45541;BME280;31265;49.680;8.608;2023-01-29T04:03:33;101906.09;;;-1.26;100.00
45541;BME280;31265;49.680;8.608;2023-01-29T04:06:10;101895.34;;;-1.30;100.00
45541;BME280;31265;49.680;8.608;2023-01-29T04:08:57;101892.50;;;-1.26;100.00
45541;BME280;31265;49.680;8.608;2023-01-29T04:11:30;101878.69;;;-1.32;100.00
45541;BME280;31265;49.680;8.608;2023-01-29T04:14:01;101883.38;;;-1.33;100.00
45541;BME280;31265;49.680;8.608;2023-01-29T04:16:35;101877.50;;;-1.31;100.00
45541;BME280;31265;49.680;8.608;2023-01-29T04:19:24;101869.75;;;-1.33;100.00
45541;BME280;31265;49.680;8.608;2023-01-29T04:22:02;101868.69;;;-1.35;100.00
45541;BME280;31265;49.680;8.608;2023-01-29T04:24:33;101873.03;;;-1.38;100.00
45541;BME280;31265;49.680;8.608;2023-01-29T04:27:10;101885.44;;;-1.37;100.00
45541;BME280;31265;49.680;8.608;2023-01-29T04:29:56;101887.09;;;-1.39;100.00
45541;BME280;31265;49.680;8.608;2023-01-29T04:32:38;101884.81;;;-1.41;100.00
45541;BME280;31265;49.680;8.608;2023-01-29T04:35:22;101877.84;;;-1.42;100.00
45541;BME280;31265;49.680;8.608;2023-01-29T04:37:56;101872.53;;;-1.45;100.00
45541;BME280;31265;49.680;8.608;2023-01-29T04:40:32;101860.22;;;-1.50;100.00
45541;BME280;31265;49.680;8.608;2023-01-29T04:43:08;101848.69;;;-1.54;100.00
45541;BME280;31265;49.680;8.608;2023-01-29T04:45:48;101840.53;;;-1.54;100.00
45541;BME280;31265;49.680;8.608;2023-01-29T04:48:26;101848.06;;;-1.58;100.00
45541;BME280;31265;49.680;8.608;2023-01-29T04:50:56;101838.50;;;-1.63;100.00
45541;BME280;31265;49.680;8.608;2023-01-29T04:53:35;101842.97;;;-1.69;100.00
45541;BME280;31265;49.680;8.608;2023-01-29T04:56:07;101847.00;;;-1.74;100.00
45541;BME280;31265;49.680;8.608;2023-01-29T04:58:43;101834.28;;;-1.77;100.00
45541;BME280;31265;49.680;8.608;2023-01-29T05:01:15;101835.34;;;-1.74;100.00
45541;BME280;31265;49.680;8.608;2023-01-29T05:03:47;101833.94;;;-1.79;100.00
45541;BME280;31265;49.680;8.608;2023-01-29T05:06:18;101846.59;;;-1.85;100.00
45541;BME280;31265;49.680;8.608;2023-01-29T05:08:50;101846.28;;;-1.87;100.00
45541;BME280;31265;49.680;8.608;2023-01-29T05:11:19;101843.56;;;-1.87;100.00
45541;BME280;31265;49.680;8.608;2023-01-29T05:13:48;101857.59;;;-1.88;100.00
45541;BME280;31265;49.680;8.608;2023-01-29T05:16:19;101861.53;;;-1.89;100.00
45541;BME280;31265;49.680;8.608;2023-01-29T05:18:49;101860.75;;;-1.90;100.00
45541;BME280;31265;49.680;8.608;2023-01-29T05:21:18;101867.38;;;-1.91;100.00
45541;BME280;31265;49.680;8.608;2023-01-29T05:24:11;101886.34;;;-1.87;100.00
45541;BME280;31265;49.680;8.608;2023-01-29T05:26:41;101886.22;;;-1.84;100.00
45541;BME280;31265;49.680;8.608;2023-01-29T05:29:27;101893.81;;;-1.79;100.00
45541;BME280;31265;49.680;8.608;2023-01-29T05:31:55;101895.13;;;-1.70;100.00
45541;BME280;31265;49.680;8.608;2023-01-29T05:34:24;101884.13;;;-1.67;100.00
45541;BME280;31265;49.680;8.608;2023-01-29T05:36:56;101880.19;;;-1.66;100.00
45541;BME280;31265;49.680;8.608;2023-01-29T05:39:26;101875.53;;;-1.65;100.00
45541;BME280;31265;49.680;8.608;2023-01-29T05:41:54;101873.66;;;-1.68;100.00
45541;BME280;31265;49.680;8.608;2023-01-29T05:44:22;101855.38;;;-1.68;100.00
45541;BME280;31265;49.680;8.608;2023-01-29T05:46:50;101844.38;;;-1.64;100.00
45541;BME280;31265;49.680;8.608;2023-01-29T05:49:19;101854.03;;;-1.63;100.00
45541;BME280;31265;49.680;8.608;2023-01-29T05:51:49;101848.94;;;-1.61;100.00
45541;BME280;31265;49.680;8.608;2023-01-29T05:54:17;101857.66;;;-1.66;100.00
45541;BME280;31265;49.680;8.608;2023-01-29T05:56:47;101855.38;;;-1.68;100.00
45541;BME280;31265;49.680;8.608;2023-01-29T05:59:15;101861.69;;;-1.71;100.00
45541;BME280;31265;49.680;8.608;2023-01-29T06:01:45;101871.06;;;-1.72;100.00
45541;BME280;31265;49.680;8.608;2023-01-29T06:04:16;101870.31;;;-1.73;100.00
45541;BME280;31265;49.680;8.608;2023-01-29T06:06:46;101871.81;;;-1.71;100.00
45541;BME280;31265;49.680;8.608;2023-01-29T06:09:15;101881.53;;;-1.70;100.00
45541;BME280;31265;49.680;8.608;2023-01-29T06:11:43;101877.25;;;-1.71;100.00
45541;BME280;31265;49.680;8.608;2023-01-29T06:14:12;101868.78;;;-1.74;100.00
45541;BME280;31265;49.680;8.608;2023-01-29T06:16:41;101865.09;;;-1.80;100.00
45541;BME280;31265;49.680;8.608;2023-01-29T06:19:09;101871.41;;;-1.83;100.00
45541;BME280;31265;49.680;8.608;2023-01-29T06:21:40;101873.06;;;-1.85;100.00
45541;BME280;31265;49.680;8.608;2023-01-29T06:24:11;101866.53;;;-1.88;100.00
45541;BME280;31265;49.680;8.608;2023-01-29T06:26:39;101870.44;;;-1.89;100.00
45541;BME280;31265;49.680;8.608;2023-01-29T06:29:07;101870.44;;;-1.89;100.00
45541;BME280;31265;49.680;8.608;2023-01-29T06:31:38;101864.56;;;-1.87;100.00
45541;BME280;31265;49.680;8.608;2023-01-29T06:34:08;101861.53;;;-1.89;100.00
45541;BME280;31265;49.680;8.608;2023-01-29T06:36:37;101856.84;;;-1.89;100.00
45541;BME280;31265;49.680;8.608;2023-01-29T06:39:05;101853.78;;;-1.91;100.00
45541;BME280;31265;49.680;8.608;2023-01-29T06:41:34;101846.81;;;-1.92;100.00
45541;BME280;31265;49.680;8.608;2023-01-29T06:44:02;101860.88;;;-1.93;100.00
45541;BME280;31265;49.680;8.608;2023-01-29T06:46:30;101857.72;;;-1.92;100.00
45541;BME280;31265;49.680;8.608;2023-01-29T06:49:00;101866.63;;;-1.91;100.00
45541;BME280;31265;49.680;8.608;2023-01-29T06:51:29;101859.22;;;-1.91;100.00
45541;BME280;31265;49.680;8.608;2023-01-29T06:53:57;101866.97;;;-1.89;100.00
45541;BME280;31265;49.680;8.608;2023-01-29T06:56:26;101869.25;;;-1.88;100.00
45541;BME280;31265;49.680;8.608;2023-01-29T06:58:55;101864.13;;;-1.86;100.00
45541;BME280;31265;49.680;8.608;2023-01-29T07:01:23;101861.38;;;-1.86;100.00
45541;BME280;31265;49.680;8.608;2023-01-29T07:04:04;101861.84;;;-1.87;100.00
45541;BME280;31265;49.680;8.608;2023-01-29T07:06:32;101858.03;;;-1.90;100.00
45541;BME280;31265;49.680;8.608;2023-01-29T07:09:01;101863.91;;;-1.91;100.00
45541;BME280;31265;49.680;8.608;2023-01-29T07:11:30;101861.63;;;-1.93;100.00
45541;BME280;31265;49.680;8.608;2023-01-29T07:13:58;101875.13;;;-1.89;100.00
45541;BME280;31265;49.680;8.608;2023-01-29T07:16:27;101867.63;;;-1.85;100.00
45541;BME280;31265;49.680;8.608;2023-01-29T07:18:55;101870.63;;;-1.83;100.00
45541;BME280;31265;49.680;8.608;2023-01-29T07:21:25;101880.34;;;-1.82;100.00
45541;BME280;31265;49.680;8.608;2023-01-29T07:23:54;101874.44;;;-1.81;100.00
45541;BME280;31265;49.680;8.608;2023-01-29T07:26:22;101870.88;;;-1.78;100.00
45541;BME280;31265;49.680;8.608;2023-01-29T07:28:52;101871.94;;;-1.75;100.00
45541;BME280;31265;49.680;8.608;2023-01-29T07:31:20;101877.25;;;-1.71;100.00
45541;BME280;31265;49.680;8.608;2023-01-29T07:33:49;101885.75;;;-1.69;100.00
45541;BME280;31265;49.680;8.608;2023-01-29T07:36:17;101887.25;;;-1.68;100.00
45541;BME280;31265;49.680;8.608;2023-01-29T07:38:49;101893.50;;;-1.68;100.00
45541;BME280;31265;49.680;8.608;2023-01-29T07:41:18;101890.97;;;-1.62;100.00
45541;BME280;31265;49.680;8.608;2023-01-29T07:43:46;101897.91;;;-1.61;100.00
45541;BME280;31265;49.680;8.608;2023-01-29T07:46:14;101897.50;;;-1.60;100.00
45541;BME280;31265;49.680;8.608;2023-01-29T07:48:43;101905.25;;;-1.58;100.00
45541;BME280;31265;49.680;8.608;2023-01-29T07:51:13;101908.25;;;-1.56;100.00
45541;BME280;31265;49.680;8.608;2023-01-29T07:53:44;101902.72;;;-1.53;100.00
45541;BME280;31265;49.680;8.608;2023-01-29T07:56:14;101893.53;;;-1.46;100.00
45541;BME280;31265;49.680;8.608;2023-01-29T07:58:42;101900.84;;;-1.43;100.00
45541;BME280;31265;49.680;8.608;2023-01-29T08:01:11;101894.38;;;-1.36;100.00
45541;BME280;31265;49.680;8.608;2023-01-29T08:03:41;101901.53;;;-1.30;100.00
45541;BME280;31265;49.680;8.608;2023-01-29T08:06:10;101896.28;;;-1.24;100.00
45541;BME280;31265;49.680;8.608;2023-01-29T08:08:38;101893.47;;;-1.20;100.00
45541;BME280;31265;49.680;8.608;2023-01-29T08:11:07;101897.03;;;-1.11;100.00
45541;BME280;31265;49.680;8.608;2023-01-29T08:13:37;101896.63;;;-1.00;100.00
45541;BME280;31265;49.680;8.608;2023-01-29T08:16:05;101907.28;;;-0.93;100.00
45541;BME280;31265;49.680;8.608;2023-01-29T08:18:35;101901.00;;;-0.80;100.00
45541;BME280;31265;49.680;8.608;2023-01-29T08:21:04;101902.97;;;-0.81;100.00
45541;BME280;31265;49.680;8.608;2023-01-29T08:23:33;101900.25;;;-0.59;100.00
45541;BME280;31265;49.680;8.608;2023-01-29T08:26:02;101899.03;;;-0.58;100.00
45541;BME280;31265;49.680;8.608;2023-01-29T08:28:30;101899.97;;;-0.52;100.00
45541;BME280;31265;49.680;8.608;2023-01-29T08:31:00;101898.81;;;-0.41;100.00
45541;BME280;31265;49.680;8.608;2023-01-29T08:33:29;101910.25;;;-0.56;100.00
45541;BME280;31265;49.680;8.608;2023-01-29T08:36:07;101907.59;;;-0.37;100.00
45541;BME280;31265;49.680;8.608;2023-01-29T08:38:36;101917.50;;;-0.31;100.00
45541;BME280;31265;49.680;8.608;2023-01-29T08:41:05;101933.19;;;-0.13;100.00
45541;BME280;31265;49.680;8.608;2023-01-29T08:43:34;101936.50;;;-0.18;100.00
45541;BME280;31265;49.680;8.608;2023-01-29T08:46:05;101926.84;;;-0.10;100.00
45541;BME280;31265;49.680;8.608;2023-01-29T08:48:33;101914.47;;;0.08;100.00
45541;BME280;31265;49.680;8.608;2023-01-29T08:51:02;101899.03;;;0.14;100.00
45541;BME280;31265;49.680;8.608;2023-01-29T08:53:31;101884.69;;;-0.09;100.00
45541;BME280;31265;49.680;8.608;2023-01-29T08:55:59;101870.16;;;-0.06;100.00
45541;BME280;31265;49.680;8.608;2023-01-29T08:58:28;101863.22;;;0.03;100.00
45541;BME280;31265;49.680;8.608;2023-01-29T09:00:56;101861.06;;;-0.03;100.00
45541;BME280;31265;49.680;8.608;2023-01-29T09:03:33;101870.22;;;0.22;100.00
45541;BME280;31265;49.680;8.608;2023-01-29T09:06:02;101877.94;;;0.14;100.00
45541;BME280;31265;49.680;8.608;2023-01-29T09:08:30;101873.06;;;0.09;100.00
45541;BME280;31265;49.680;8.608;2023-01-29T09:10:59;101881.72;;;0.17;100.00
45541;BME280;31265;49.680;8.608;2023-01-29T09:13:27;101883.94;;;0.50;100.00
45541;BME280;31265;49.680;8.608;2023-01-29T09:15:58;101881.63;;;0.39;100.00
45541;BME280;31265;49.680;8.608;2023-01-29T09:18:27;101888.19;;;0.97;100.00
45541;BME280;31265;49.680;8.608;2023-01-29T09:20:57;101889.81;;;1.31;100.00
45541;BME280;31265;49.680;8.608;2023-01-29T09:23:25;101893.88;;;1.45;100.00
45541;BME280;31265;49.680;8.608;2023-01-29T09:25:54;101885.66;;;1.45;100.00
45541;BME280;31265;49.680;8.608;2023-01-29T09:28:24;101898.06;;;1.64;100.00
45541;BME280;31265;49.680;8.608;2023-01-29T09:30:52;101908.72;;;1.62;100.00
45541;BME280;31265;49.680;8.608;2023-01-29T09:33:20;101918.03;;;1.37;100.00
45541;BME280;31265;49.680;8.608;2023-01-29T09:35:53;101923.22;;;1.35;100.00
45541;BME280;31265;49.680;8.608;2023-01-29T09:38:24;101927.50;;;1.08;100.00
45541;BME280;31265;49.680;8.608;2023-01-29T09:41:01;101915.81;;;0.80;100.00
45541;BME280;31265;49.680;8.608;2023-01-29T09:43:41;101922.78;;;0.63;100.00
45541;BME280;31265;49.680;8.608;2023-01-29T09:46:16;101924.31;;;0.82;100.00
45541;BME280;31265;49.680;8.608;2023-01-29T09:48:50;101933.88;;;0.96;100.00
45541;BME280;31265;49.680;8.608;2023-01-29T09:51:29;101937.84;;;1.04;100.00
45541;BME280;31265;49.680;8.608;2023-01-29T09:54:13;101947.41;;;1.00;100.00
45541;BME280;31265;49.680;8.608;2023-01-29T09:56:47;101946.19;;;0.92;100.00
45541;BME280;31265;49.680;8.608;2023-01-29T09:59:20;101947.84;;;0.98;100.00
45541;BME280;31265;49.680;8.608;2023-01-29T10:02:00;101953.31;;;1.07;100.00
45541;BME280;31265;49.680;8.608;2023-01-29T10:04:49;101951.03;;;1.24;100.00
45541;BME280;31265;49.680;8.608;2023-01-29T10:07:43;101948.63;;;1.26;100.00
45541;BME280;31265;49.680;8.608;2023-01-29T10:10:23;101935.25;;;0.92;100.00
45541;BME280;31265;49.680;8.608;2023-01-29T10:13:02;101932.06;;;0.75;100.00
45541;BME280;31265;49.680;8.608;2023-01-29T10:15:45;101934.00;;;1.29;100.00
45541;BME280;31265;49.680;8.608;2023-01-29T10:18:33;101929.78;;;1.19;100.00
45541;BME280;31265;49.680;8.608;2023-01-29T10:21:19;101922.94;;;1.24;100.00
45541;BME280;31265;49.680;8.608;2023-01-29T10:23:53;101925.19;;;1.25;100.00
45541;BME280;31265;49.680;8.608;2023-01-29T10:26:27;101919.16;;;1.03;100.00
45541;BME280;31265;49.680;8.608;2023-01-29T10:28:57;101909.41;;;1.11;100.00
45541;BME280;31265;49.680;8.608;2023-01-29T10:31:31;101910.34;;;1.17;100.00
45541;BME280;31265;49.680;8.608;2023-01-29T10:34:09;101917.03;;;0.98;100.00
45541;BME280;31265;49.680;8.608;2023-01-29T10:36:43;101904.88;;;0.90;100.00
45541;BME280;31265;49.680;8.608;2023-01-29T10:39:15;101903.50;;;1.03;100.00
45541;BME280;31265;49.680;8.608;2023-01-29T10:41:57;101895.78;;;1.02;100.00
45541;BME280;31265;49.680;8.608;2023-01-29T10:44:39;101883.34;;;0.92;100.00
45541;BME280;31265;49.680;8.608;2023-01-29T10:47:26;101871.03;;;0.78;100.00
45541;BME280;31265;49.680;8.608;2023-01-29T10:50:10;101880.16;;;0.75;100.00
45541;BME280;31265;49.680;8.608;2023-01-29T10:52:57;101867.38;;;0.90;100.00
45541;BME280;31265;49.680;8.608;2023-01-29T10:55:40;101868.13;;;0.91;100.00
45541;BME280;31265;49.680;8.608;2023-01-29T10:58:21;101861.13;;;0.99;100.00
45541;BME280;31265;49.680;8.608;2023-01-29T11:00:55;101850.69;;;0.88;100.00
45541;BME280;31265;49.680;8.608;2023-01-29T11:03:25;101850.84;;;0.66;100.00
45541;BME280;31265;49.680;8.608;2023-01-29T11:06:00;101840.53;;;0.61;100.00
45541;BME280;31265;49.680;8.608;2023-01-29T11:08:36;101840.81;;;0.35;100.00
45541;BME280;31265;49.680;8.608;2023-01-29T11:11:06;101840.94;;;0.32;100.00
45541;BME280;31265;49.680;8.608;2023-01-29T11:13:43;101840.94;;;0.13;100.00
45541;BME280;31265;49.680;8.608;2023-01-29T11:16:14;101841.41;;;0.21;100.00
45541;BME280;31265;49.680;8.608;2023-01-29T11:18:52;101829.44;;;0.37;100.00
45541;BME280;31265;49.680;8.608;2023-01-29T11:21:22;101827.00;;;0.39;100.00
45541;BME280;31265;49.680;8.608;2023-01-29T11:24:07;101819.28;;;0.65;100.00
45541;BME280;31265;49.680;8.608;2023-01-29T11:26:41;101816.69;;;0.71;100.00
45541;BME280;31265;49.680;8.608;2023-01-29T11:29:31;101808.97;;;0.51;100.00
45541;BME280;31265;49.680;8.608;2023-01-29T11:32:03;101804.66;;;0.96;100.00
45541;BME280;31265;49.680;8.608;2023-01-29T11:34:33;101808.28;;;1.02;100.00
45541;BME280;31265;49.680;8.608;2023-01-29T11:37:03;101806.19;;;0.97;100.00
45541;BME280;31265;49.680;8.608;2023-01-29T11:39:42;101799.31;;;1.11;100.00
45541;BME280;31265;49.680;8.608;2023-01-29T11:42:18;101781.28;;;0.95;100.00
45541;BME280;31265;49.680;8.608;2023-01-29T11:44:48;101772.66;;;1.63;100.00
45541;BME280;31265;49.680;8.608;2023-01-29T11:47:19;101768.75;;;1.21;100.00
45541;BME280;31265;49.680;8.608;2023-01-29T11:49:52;101774.38;;;1.18;100.00
45541;BME280;31265;49.680;8.608;2023-01-29T11:52:25;101765.13;;;1.15;100.00
45541;BME280;31265;49.680;8.608;2023-01-29T11:54:57;101769.84;;;1.48;100.00
45541;BME280;31265;49.680;8.608;2023-01-29T11:57:29;101761.78;;;1.54;100.00
45541;BME280;31265;49.680;8.608;2023-01-29T12:00:04;101759.59;;;1.58;100.00
45541;BME280;31265;49.680;8.608;2023-01-29T12:02:36;101753.28;;;1.76;100.00
45541;BME280;31265;49.680;8.608;2023-01-29T12:05:13;101749.13;;;1.80;100.00
45541;BME280;31265;49.680;8.608;2023-01-29T12:07:44;101744.94;;;1.70;100.00
45541;BME280;31265;49.680;8.608;2023-01-29T12:10:33;101749.59;;;1.79;100.00
45541;BME280;31265;49.680;8.608;2023-01-29T12:13:04;101738.38;;;1.77;100.00
45541;BME280;31265;49.680;8.608;2023-01-29T12:15:34;101744.44;;;1.81;100.00
45541;BME280;31265;49.680;8.608;2023-01-29T12:18:13;101728.34;;;1.74;100.00
45541;BME280;31265;49.680;8.608;2023-01-29T12:20:45;101736.03;;;1.60;100.00
45541;BME280;31265;49.680;8.608;2023-01-29T12:23:23;101728.53;;;1.46;100.00
45541;BME280;31265;49.680;8.608;2023-01-29T12:25:59;101734.28;;;1.48;100.00
45541;BME280;31265;49.680;8.608;2023-01-29T12:28:41;101724.38;;;1.50;100.00
45541;BME280;31265;49.680;8.608;2023-01-29T12:31:20;101718.78;;;1.45;100.00
45541;BME280;31265;49.680;8.608;2023-01-29T12:33:59;101727.59;;;1.73;100.00
45541;BME280;31265;49.680;8.608;2023-01-29T12:36:33;101722.59;;;1.71;100.00
45541;BME280;31265;49.680;8.608;2023-01-29T12:39:04;101715.41;;;1.98;100.00
45541;BME280;31265;49.680;8.608;2023-01-29T12:41:36;101711.00;;;1.53;100.00
45541;BME280;31265;49.680;8.608;2023-01-29T12:44:12;101705.47;;;1.62;100.00
45541;BME280;31265;49.680;8.608;2023-01-29T12:46:50;101713.69;;;1.62;100.00
45541;BME280;31265;49.680;8.608;2023-01-29T12:49:23;101715.97;;;2.02;100.00
45541;BME280;31265;49.680;8.608;2023-01-29T12:51:57;101706.91;;;1.72;100.00
45541;BME280;31265;49.680;8.608;2023-01-29T12:54:33;101703.81;;;2.03;100.00
45541;BME280;31265;49.680;8.608;2023-01-29T12:57:07;101686.81;;;2.14;100.00
45541;BME280;31265;49.680;8.608;2023-01-29T12:59:41;101694.00;;;2.11;100.00
45541;BME280;31265;49.680;8.608;2023-01-29T13:02:19;101685.56;;;2.00;100.00
45541;BME280;31265;49.680;8.608;2023-01-29T13:04:56;101680.44;;;1.78;100.00
45541;BME280;31265;49.680;8.608;2023-01-29T13:07:30;101679.75;;;1.68;100.00
45541;BME280;31265;49.680;8.608;2023-01-29T13:10:06;101671.69;;;1.65;100.00
45541;BME280;31265;49.680;8.608;2023-01-29T13:12:35;101668.97;;;1.65;100.00
45541;BME280;31265;49.680;8.608;2023-01-29T13:15:14;101665.72;;;1.76;100.00